Time;durP1;ratioP1;P1;durP2;ratioP2;P2;SDS_P1;SDS_P2;PMS_P1;PMS_P2;Temp;Humidity;BMP_temperature;BMP_pressure;BME280_temperature;BME280_humidity;BME280_pressure;Samples;Min_cycle;Max_cycle;Signal;HPM_P1;HPM_P2
2022/03/26 00:02:15;;;;;;;49.70;28.90;;;5.70;99.90;;;;;;5050679;28;20211;-50
2022/03/26 00:04:44;;;;;;;47.83;28.27;;;5.70;99.90;;;;;;5050182;28;20217;-50
2022/03/26 00:07:12;;;;;;;46.93;27.67;;;5.70;99.90;;;;;;5050121;28;20210;-51
2022/03/26 00:09:40;;;;;;;53.60;28.80;;;5.70;99.90;;;;;;5050461;28;20218;-50
2022/03/26 00:12:10;;;;;;;45.43;27.00;;;5.80;99.90;;;;;;5050050;28;20203;-51
2022/03/26 00:14:38;;;;;;;48.73;27.33;;;5.80;99.90;;;;;;5050447;28;20581;-51
2022/03/26 00:17:06;;;;;;;47.80;27.00;;;5.80;99.90;;;;;;5051336;28;20251;-51
2022/03/26 00:19:34;;;;;;;52.50;28.47;;;5.80;99.90;;;;;;5053607;28;20248;-50
2022/03/26 00:22:03;;;;;;;51.03;28.50;;;5.70;99.90;;;;;;5053363;28;20210;-50
2022/03/26 00:24:31;;;;;;;47.37;28.53;;;5.70;99.90;;;;;;5052503;28;20263;-50
2022/03/26 00:26:59;;;;;;;50.27;28.33;;;5.60;99.90;;;;;;5053781;28;20202;-50
2022/03/26 00:29:29;;;;;;;49.60;27.80;;;5.60;99.90;;;;;;5052232;28;20292;-50
2022/03/26 00:31:57;;;;;;;51.83;29.53;;;5.50;99.90;;;;;;5052835;28;20720;-50
2022/03/26 00:34:25;;;;;;;52.70;28.23;;;5.50;99.90;;;;;;5053594;28;20311;-50
2022/03/26 00:36:53;;;;;;;49.60;28.83;;;5.40;99.90;;;;;;5053560;28;20564;-50
2022/03/26 00:39:21;;;;;;;55.60;28.63;;;5.40;99.90;;;;;;5053674;28;20226;-50
2022/03/26 00:41:49;;;;;;;49.77;27.27;;;5.40;99.90;;;;;;5053069;28;20209;-50
2022/03/26 00:44:18;;;;;;;49.73;28.93;;;5.30;99.90;;;;;;5053265;28;20255;-50
2022/03/26 00:46:47;;;;;;;51.23;30.07;;;5.30;99.90;;;;;;5053257;28;20308;-50
2022/03/26 00:49:17;;;;;;;48.27;27.50;;;5.20;99.90;;;;;;5053300;28;20237;-51
2022/03/26 00:51:46;;;;;;;45.83;25.50;;;5.10;99.90;;;;;;5053116;28;20225;-50
2022/03/26 00:54:14;;;;;;;49.33;27.07;;;5.10;99.90;;;;;;5050349;28;20199;-50
2022/03/26 00:56:43;;;;;;;47.33;27.67;;;5.10;99.90;;;;;;5053590;28;20203;-50
2022/03/26 00:59:11;;;;;;;48.83;28.10;;;5.10;99.90;;;;;;5052617;28;20563;-50
2022/03/26 01:01:39;;;;;;;49.67;27.93;;;5.10;99.90;;;;;;5052726;28;20674;-51
2022/03/26 01:04:09;;;;;;;56.10;28.70;;;5.10;99.90;;;;;;5052600;28;20629;-51
2022/03/26 01:06:37;;;;;;;55.63;29.77;;;5.10;99.90;;;;;;5052298;28;20563;-51
2022/03/26 01:09:06;;;;;;;51.07;28.07;;;5.10;99.90;;;;;;5053116;28;20268;-50
2022/03/26 01:11:35;;;;;;;50.37;28.60;;;5.10;99.90;;;;;;5053031;28;20222;-51
2022/03/26 01:14:03;;;;;;;50.33;28.10;;;5.00;99.90;;;;;;5052376;28;20210;-51
2022/03/26 01:16:32;;;;;;;46.60;27.23;;;5.00;99.90;;;;;;5052910;28;20206;-51
2022/03/26 01:19:00;;;;;;;48.80;26.97;;;4.90;99.90;;;;;;5052661;28;20230;-51
2022/03/26 01:21:30;;;;;;;48.83;27.87;;;4.90;99.90;;;;;;5053136;28;20205;-51
2022/03/26 01:23:58;;;;;;;49.20;27.43;;;4.90;99.90;;;;;;5051970;28;20205;-51
2022/03/26 01:26:26;;;;;;;52.87;27.67;;;5.00;99.90;;;;;;5052963;28;20209;-51
2022/03/26 01:28:54;;;;;;;49.53;27.67;;;4.90;99.90;;;;;;5050575;28;20646;-51
2022/03/26 01:31:22;;;;;;;48.37;27.93;;;4.90;99.90;;;;;;5052415;28;20291;-51
2022/03/26 01:33:52;;;;;;;48.83;26.77;;;4.90;99.90;;;;;;5052536;28;20300;-51
2022/03/26 01:36:22;;;;;;;45.13;26.57;;;4.90;99.90;;;;;;5052244;28;20260;-51
2022/03/26 01:38:51;;;;;;;47.17;26.03;;;4.90;99.90;;;;;;5052824;28;20233;-51
2022/03/26 01:41:20;;;;;;;48.23;26.67;;;4.90;99.90;;;;;;5052355;28;20543;-51
2022/03/26 01:43:48;;;;;;;52.37;27.93;;;4.90;99.90;;;;;;5051989;28;20209;-51
2022/03/26 01:46:16;;;;;;;49.00;27.67;;;4.80;99.90;;;;;;5052390;28;20208;-51
2022/03/26 01:48:44;;;;;;;49.17;27.27;;;4.90;99.90;;;;;;5051877;28;20739;-51
2022/03/26 01:51:15;;;;;;;51.73;27.90;;;4.90;99.90;;;;;;5052295;28;20218;-51
2022/03/26 01:53:45;;;;;;;49.90;27.77;;;4.80;99.90;;;;;;5051682;28;20212;-52
2022/03/26 01:56:16;;;;;;;45.50;27.23;;;4.80;99.90;;;;;;5052255;28;20684;-51
2022/03/26 01:58:45;;;;;;;48.90;27.67;;;4.70;99.90;;;;;;5052113;28;20228;-51
2022/03/26 02:01:14;;;;;;;48.57;28.03;;;4.70;99.90;;;;;;5051745;28;20202;-52
2022/03/26 02:03:42;;;;;;;50.90;27.17;;;4.70;99.90;;;;;;5051267;28;20282;-51
2022/03/26 02:06:11;;;;;;;50.50;27.23;;;4.70;99.90;;;;;;5051070;28;20254;-51
2022/03/26 02:08:39;;;;;;;50.00;26.50;;;4.60;99.90;;;;;;5051031;28;20282;-51
2022/03/26 02:11:07;;;;;;;46.73;26.23;;;4.60;99.90;;;;;;5051208;28;20317;-51
2022/03/26 02:13:53;;;;;;;52.10;27.43;;;4.60;99.90;;;;;;5050968;28;20205;-51
2022/03/26 02:16:21;;;;;;;51.23;28.07;;;4.60;99.90;;;;;;5051796;28;20625;-51
2022/03/26 02:18:50;;;;;;;48.40;26.63;;;4.60;99.90;;;;;;5051364;28;20255;-51
2022/03/26 02:21:21;;;;;;;47.77;27.10;;;4.60;99.90;;;;;;5032734;28;20263;-51
2022/03/26 02:23:50;;;;;;;48.43;27.77;;;4.60;99.90;;;;;;5030954;28;20251;-51
2022/03/26 02:26:20;;;;;;;44.13;26.63;;;4.60;99.90;;;;;;5031540;28;20217;-51
2022/03/26 02:28:49;;;;;;;48.90;28.03;;;4.60;99.90;;;;;;5030981;28;20324;-51
2022/03/26 02:31:17;;;;;;;46.27;26.13;;;4.50;99.90;;;;;;5031362;28;20251;-51
2022/03/26 02:33:46;;;;;;;48.80;27.67;;;4.50;99.90;;;;;;5031304;28;20263;-51
2022/03/26 02:36:14;;;;;;;47.13;26.80;;;4.60;99.90;;;;;;5049442;28;20286;-51
2022/03/26 02:38:44;;;;;;;48.93;26.40;;;4.50;99.90;;;;;;5051600;28;20273;-51
2022/03/26 02:41:12;;;;;;;45.20;26.53;;;4.50;99.90;;;;;;5051313;28;20229;-51
2022/03/26 02:43:40;;;;;;;52.77;28.93;;;4.40;99.90;;;;;;5050444;28;20675;-51
2022/03/26 02:46:08;;;;;;;48.33;27.13;;;4.40;99.90;;;;;;5051447;28;20213;-51
2022/03/26 02:48:39;;;;;;;46.23;26.67;;;4.40;99.90;;;;;;5051043;28;20228;-51
2022/03/26 02:51:07;;;;;;;49.53;27.63;;;4.40;99.90;;;;;;5051440;28;20251;-51
2022/03/26 02:53:35;;;;;;;47.90;27.57;;;4.40;99.90;;;;;;5050192;28;20204;-51
2022/03/26 02:56:05;;;;;;;44.33;25.87;;;4.40;99.90;;;;;;5051391;28;20207;-51
2022/03/26 02:58:33;;;;;;;48.30;26.20;;;4.50;99.90;;;;;;5050881;28;20282;-51
2022/03/26 03:01:01;;;;;;;47.30;26.83;;;4.50;99.90;;;;;;5050572;28;20621;-51
2022/03/26 03:03:30;;;;;;;47.20;26.63;;;4.50;99.90;;;;;;5050487;28;20299;-51
2022/03/26 03:05:58;;;;;;;50.17;27.10;;;4.50;99.90;;;;;;5050928;28;20209;-51
2022/03/26 03:08:26;;;;;;;48.77;26.17;;;4.50;99.90;;;;;;5051280;28;20231;-51
2022/03/26 03:10:54;;;;;;;52.37;29.23;;;4.40;99.90;;;;;;5050882;28;20202;-51
2022/03/26 03:13:24;;;;;;;48.67;26.93;;;4.40;99.90;;;;;;5050408;28;20215;-51
2022/03/26 03:15:53;;;;;;;47.07;26.50;;;4.40;99.90;;;;;;5050802;28;20670;-51
2022/03/26 03:18:21;;;;;;;46.13;26.73;;;4.40;99.90;;;;;;5050861;28;20253;-51
2022/03/26 03:20:49;;;;;;;46.10;26.13;;;4.30;99.90;;;;;;5050971;28;20210;-51
2022/03/26 03:23:17;;;;;;;48.50;26.83;;;4.30;99.90;;;;;;5050164;28;20212;-51
2022/03/26 03:25:45;;;;;;;46.60;26.17;;;4.30;99.90;;;;;;5051002;28;20208;-51
2022/03/26 03:28:13;;;;;;;44.67;25.20;;;4.30;99.90;;;;;;5049951;28;20232;-51
2022/03/26 03:30:42;;;;;;;47.47;26.70;;;4.20;99.90;;;;;;5050579;28;20212;-50
2022/03/26 03:33:11;;;;;;;45.63;26.37;;;4.20;99.90;;;;;;5050353;28;20226;-51
2022/03/26 03:35:39;;;;;;;44.70;27.30;;;4.20;99.90;;;;;;5050533;28;20288;-51
2022/03/26 03:38:07;;;;;;;48.30;26.20;;;4.10;99.90;;;;;;5050652;28;20226;-51
2022/03/26 03:40:35;;;;;;;47.50;26.93;;;4.10;99.90;;;;;;5050523;28;20231;-51
2022/03/26 03:43:04;;;;;;;50.07;26.67;;;4.10;99.90;;;;;;5050188;28;20200;-51
2022/03/26 03:45:33;;;;;;;45.80;26.77;;;4.10;99.90;;;;;;5050716;28;20223;-51
2022/03/26 03:48:02;;;;;;;48.70;26.97;;;4.10;99.90;;;;;;5050431;28;20230;-51
2022/03/26 03:50:31;;;;;;;51.20;27.47;;;4.10;99.90;;;;;;5050525;28;20203;-51
2022/03/26 03:52:59;;;;;;;45.40;27.20;;;4.10;99.90;;;;;;5051809;28;20263;-51
2022/03/26 03:55:27;;;;;;;46.13;26.00;;;4.10;99.90;;;;;;5054421;28;20739;-51
2022/03/26 03:57:55;;;;;;;49.97;25.93;;;4.10;99.90;;;;;;5054694;28;20228;-51
2022/03/26 04:00:24;;;;;;;46.07;27.53;;;4.10;99.90;;;;;;5054335;28;20207;-51
2022/03/26 04:02:53;;;;;;;50.67;27.90;;;4.10;99.90;;;;;;5053906;28;20204;-51
2022/03/26 04:05:23;;;;;;;48.90;27.10;;;4.10;99.90;;;;;;5054149;28;20597;-51
2022/03/26 04:07:51;;;;;;;48.03;26.67;;;4.10;99.90;;;;;;5054164;28;20256;-51
2022/03/26 04:10:19;;;;;;;48.33;26.30;;;4.10;99.90;;;;;;5045047;28;20568;-51
2022/03/26 04:12:47;;;;;;;50.30;27.77;;;4.00;99.90;;;;;;5033394;28;20226;-51
2022/03/26 04:15:16;;;;;;;47.70;26.73;;;4.00;99.90;;;;;;5034583;28;20212;-51
2022/03/26 04:17:44;;;;;;;50.63;27.43;;;4.00;99.90;;;;;;5034205;28;20379;-51
2022/03/26 04:20:12;;;;;;;47.00;27.80;;;4.00;99.90;;;;;;5042813;28;20246;-50
2022/03/26 04:22:41;;;;;;;49.67;27.17;;;4.00;99.90;;;;;;5053866;28;20216;-51
2022/03/26 04:25:11;;;;;;;56.73;29.60;;;4.00;99.90;;;;;;5053806;28;20215;-51
2022/03/26 04:27:43;;;;;;;51.63;29.47;;;4.00;99.90;;;;;;5054162;28;20654;-51
2022/03/26 04:30:12;;;;;;;50.57;27.87;;;4.00;99.90;;;;;;5052359;28;20197;-51
2022/03/26 04:32:40;;;;;;;53.60;28.47;;;4.00;99.90;;;;;;5054027;28;20231;-51
2022/03/26 04:35:09;;;;;;;49.57;26.77;;;4.00;99.90;;;;;;5054244;28;20694;-50
2022/03/26 04:37:37;;;;;;;49.90;28.47;;;4.00;99.90;;;;;;5054022;28;20231;-50
2022/03/26 04:40:09;;;;;;;52.27;28.93;;;3.90;99.90;;;;;;5054130;28;20263;-51
2022/03/26 04:42:38;;;;;;;51.83;29.57;;;3.90;99.90;;;;;;5053545;28;20194;-50
2022/03/26 04:45:07;;;;;;;52.27;29.13;;;3.90;99.90;;;;;;5054111;28;20209;-51
2022/03/26 04:47:35;;;;;;;53.00;29.27;;;4.00;99.90;;;;;;5053759;28;20231;-51
2022/03/26 04:50:04;;;;;;;53.37;28.33;;;4.00;99.90;;;;;;5054019;28;20613;-50
2022/03/26 04:52:32;;;;;;;54.57;30.23;;;4.00;99.90;;;;;;5053498;28;20219;-51
2022/03/26 04:55:00;;;;;;;53.60;29.37;;;3.90;99.90;;;;;;5053416;28;20584;-50
2022/03/26 04:57:31;;;;;;;54.77;30.23;;;3.90;99.90;;;;;;5053349;28;20268;-51
2022/03/26 04:59:59;;;;;;;55.47;30.37;;;3.90;99.90;;;;;;5053828;28;20199;-51
2022/03/26 05:02:27;;;;;;;54.73;30.40;;;3.90;99.90;;;;;;5052306;28;20203;-50
2022/03/26 05:04:55;;;;;;;56.67;30.57;;;3.90;99.90;;;;;;5051536;28;20672;-50
2022/03/26 05:10:09;;;;;;;54.70;29.87;;;3.90;99.90;;;;;;5051651;28;20279;-51
2022/03/26 05:12:39;;;;;;;55.53;31.27;;;3.90;99.90;;;;;;5050777;28;20255;-51
2022/03/26 05:15:08;;;;;;;57.57;31.50;;;3.90;99.90;;;;;;5051823;28;20292;-50
2022/03/26 05:17:36;;;;;;;58.73;31.53;;;3.90;99.90;;;;;;5051796;28;20223;-51
2022/03/26 05:20:06;;;;;;;57.00;30.23;;;3.90;99.90;;;;;;5052941;28;20209;-51
2022/03/26 05:22:34;;;;;;;56.40;30.90;;;3.90;99.90;;;;;;5052947;28;20202;-51
2022/03/26 05:25:03;;;;;;;53.60;30.60;;;4.00;99.90;;;;;;5053152;28;20233;-51
2022/03/26 05:27:31;;;;;;;55.00;30.77;;;4.00;99.90;;;;;;5051428;28;20774;-51
2022/03/26 05:30:00;;;;;;;57.27;31.23;;;4.00;99.90;;;;;;5050306;28;20344;-51
2022/03/26 05:32:28;;;;;;;60.03;31.03;;;4.00;99.90;;;;;;5050304;28;20255;-51
2022/03/26 05:34:57;;;;;;;56.23;31.50;;;4.10;99.90;;;;;;5052524;28;20241;-51
2022/03/26 05:37:25;;;;;;;55.23;30.27;;;4.10;99.90;;;;;;5051804;28;20817;-51
2022/03/26 05:39:53;;;;;;;61.93;31.00;;;4.10;99.90;;;;;;5052126;28;20777;-51
2022/03/26 05:42:21;;;;;;;57.33;31.37;;;4.20;99.90;;;;;;5051281;28;20242;-51
2022/03/26 05:44:49;;;;;;;52.57;30.20;;;4.20;99.90;;;;;;5052143;28;20273;-50
2022/03/26 05:47:19;;;;;;;54.90;31.10;;;4.30;99.90;;;;;;5051468;28;20202;-51
2022/03/26 05:49:47;;;;;;;59.43;31.50;;;4.30;99.90;;;;;;5051613;28;20204;-50
2022/03/26 05:52:17;;;;;;;56.60;30.57;;;4.40;99.90;;;;;;5051187;28;20208;-51
2022/03/26 05:54:45;;;;;;;53.57;29.63;;;4.40;99.90;;;;;;5051652;28;20217;-51
2022/03/26 05:57:13;;;;;;;52.80;31.40;;;4.50;99.90;;;;;;5051607;28;20209;-51
2022/03/26 05:59:41;;;;;;;49.63;30.20;;;4.60;99.90;;;;;;5051487;28;20213;-50
2022/03/26 06:02:13;;;;;;;58.23;31.63;;;4.70;99.90;;;;;;5050694;28;20263;-51
2022/03/26 06:04:44;;;;;;;55.80;30.97;;;4.80;99.90;;;;;;5050876;28;20215;-51
2022/03/26 06:07:12;;;;;;;54.80;30.67;;;4.90;99.90;;;;;;5047034;28;20261;-51
2022/03/26 06:09:40;;;;;;;53.50;31.23;;;5.00;99.90;;;;;;5051159;28;20201;-51
2022/03/26 06:12:09;;;;;;;54.23;30.43;;;5.20;99.90;;;;;;5050559;28;20548;-50
2022/03/26 06:14:37;;;;;;;52.17;29.80;;;5.30;99.90;;;;;;5049723;28;20225;-51
2022/03/26 06:17:06;;;;;;;52.87;30.57;;;5.40;99.90;;;;;;5050525;28;20662;-51
2022/03/26 06:19:34;;;;;;;55.37;29.83;;;5.50;99.90;;;;;;5050971;28;20248;-51
2022/03/26 06:22:04;;;;;;;49.90;29.97;;;5.80;99.90;;;;;;5047801;28;20201;-51
2022/03/26 06:24:32;;;;;;;47.50;29.80;;;6.00;99.90;;;;;;5050729;28;20674;-51
2022/03/26 06:27:01;;;;;;;47.20;28.23;;;6.10;99.90;;;;;;5050613;28;20205;-50
2022/03/26 06:29:29;;;;;;;53.13;29.83;;;6.20;99.90;;;;;;5050083;28;20231;-51
2022/03/26 06:31:57;;;;;;;47.77;29.30;;;6.40;99.90;;;;;;5049852;28;20225;-50
2022/03/26 06:34:26;;;;;;;46.40;29.03;;;6.60;99.90;;;;;;5050281;28;20229;-51
2022/03/26 06:36:54;;;;;;;51.90;29.90;;;6.70;99.90;;;;;;5047882;28;20819;-51
2022/03/26 06:39:24;;;;;;;41.80;27.90;;;6.80;99.90;;;;;;5033863;28;20723;-50
2022/03/26 06:41:53;;;;;;;50.00;30.57;;;7.00;99.90;;;;;;5044422;28;20209;-51
2022/03/26 06:44:21;;;;;;;50.93;31.03;;;7.20;99.90;;;;;;5050110;28;20209;-51
2022/03/26 06:46:49;;;;;;;48.70;30.00;;;7.30;99.90;;;;;;5050100;28;20263;-51
2022/03/26 06:49:18;;;;;;;46.40;27.90;;;7.50;99.90;;;;;;5051208;28;20300;-51
2022/03/26 06:51:46;;;;;;;46.97;28.57;;;7.60;99.90;;;;;;5050620;28;20259;-51
2022/03/26 06:54:15;;;;;;;43.10;28.13;;;7.90;99.90;;;;;;5038231;28;20234;-51
2022/03/26 06:56:44;;;;;;;43.90;26.70;;;8.40;99.90;;;;;;5031263;28;20202;-51
2022/03/26 06:59:13;;;;;;;44.40;27.30;;;8.70;99.90;;;;;;5035653;28;20628;-51
2022/03/26 07:01:41;;;;;;;42.80;26.97;;;9.00;99.90;;;;;;5051368;28;20309;-51
2022/03/26 07:04:10;;;;;;;44.73;27.33;;;9.20;99.90;;;;;;5049025;28;20238;-52
2022/03/26 07:06:38;;;;;;;46.10;27.47;;;9.40;99.90;;;;;;5045261;28;20202;-52
2022/03/26 07:09:06;;;;;;;46.03;28.43;;;9.60;99.90;;;;;;5049039;28;20726;-51
2022/03/26 07:11:34;;;;;;;44.43;27.77;;;9.80;99.90;;;;;;5050207;28;20209;-52
2022/03/26 07:14:03;;;;;;;41.57;27.60;;;9.90;99.90;;;;;;5049349;28;20678;-51
2022/03/26 07:16:31;;;;;;;42.13;27.70;;;10.10;99.90;;;;;;5049495;28;20682;-52
2022/03/26 07:19:00;;;;;;;41.57;28.03;;;10.30;99.90;;;;;;5050314;28;20233;-51
2022/03/26 07:21:28;;;;;;;41.77;27.00;;;10.40;99.90;;;;;;5050242;28;20210;-52
2022/03/26 07:23:56;;;;;;;44.57;28.53;;;10.50;99.90;;;;;;5038095;28;20240;-52
2022/03/26 07:26:24;;;;;;;39.23;27.90;;;10.70;99.90;;;;;;5031013;28;20828;-51
2022/03/26 07:28:55;;;;;;;46.17;26.87;;;10.90;99.90;;;;;;5034777;28;20226;-52
2022/03/26 07:31:25;;;;;;;41.77;28.67;;;11.00;99.90;;;;;;5040299;28;20217;-52
2022/03/26 07:33:54;;;;;;;39.43;28.00;;;11.20;99.90;;;;;;5034497;28;20221;-52
2022/03/26 07:36:22;;;;;;;41.13;27.93;;;11.40;99.90;;;;;;5034534;28;20287;-52
2022/03/26 07:38:50;;;;;;;43.87;28.67;;;11.60;99.90;;;;;;5034384;28;20268;-53
2022/03/26 07:41:19;;;;;;;39.67;28.17;;;11.70;99.90;;;;;;5034358;28;20264;-52
2022/03/26 07:43:47;;;;;;;40.43;28.40;;;11.80;99.90;;;;;;5033726;28;20260;-52
2022/03/26 07:46:18;;;;;;;40.23;27.63;;;11.90;99.90;;;;;;5043666;28;20205;-52
2022/03/26 07:48:48;;;;;;;46.23;30.43;;;12.00;99.90;;;;;;5054222;28;20246;-52
2022/03/26 07:51:16;;;;;;;48.67;30.50;;;12.20;99.90;;;;;;5054074;28;20272;-52
2022/03/26 07:53:44;;;;;;;41.67;29.03;;;12.30;99.90;;;;;;5053991;28;20225;-52
2022/03/26 07:56:12;;;;;;;42.13;29.03;;;12.40;99.90;;;;;;5054672;28;20206;-51
2022/03/26 07:58:40;;;;;;;43.57;30.60;;;12.50;99.90;;;;;;5046910;28;20220;-51
2022/03/26 08:01:09;;;;;;;48.40;31.13;;;12.70;99.90;;;;;;5047932;28;20300;-51
2022/03/26 08:03:37;;;;;;;47.83;32.70;;;12.70;99.90;;;;;;5033224;28;20686;-51
2022/03/26 08:06:07;;;;;;;43.83;31.63;;;12.50;99.90;;;;;;5034200;28;20210;-52
2022/03/26 08:08:36;;;;;;;43.43;30.20;;;12.50;99.90;;;;;;5039824;28;20596;-52
2022/03/26 08:11:04;;;;;;;48.67;31.73;;;12.40;99.90;;;;;;5052778;28;20217;-51
2022/03/26 08:13:33;;;;;;;47.80;32.27;;;12.40;99.90;;;;;;5053232;28;20209;-52
2022/03/26 08:16:01;;;;;;;48.70;32.13;;;12.40;99.90;;;;;;5043536;28;20206;-52
2022/03/26 08:18:30;;;;;;;49.63;31.70;;;12.50;99.90;;;;;;5031953;28;20237;-52
2022/03/26 08:21:04;;;;;;;49.93;31.37;;;12.60;99.90;;;;;;5047124;28;20205;-51
2022/03/26 08:23:34;;;;;;;49.17;30.37;;;12.70;99.90;;;;;;5042426;28;20207;-52
2022/03/26 08:26:22;;;;;;;44.80;31.50;;;12.70;99.90;;;;;;5040776;28;20201;-52
2022/03/26 08:28:51;;;;;;;44.70;31.17;;;12.70;99.90;;;;;;5049909;28;20768;-51
2022/03/26 08:31:21;;;;;;;43.30;29.00;;;12.90;99.90;;;;;;5052263;28;20662;-52
2022/03/26 08:33:50;;;;;;;49.90;29.77;;;12.90;99.90;;;;;;5051438;28;20292;-52
2022/03/26 08:36:19;;;;;;;42.27;29.03;;;13.10;99.90;;;;;;5052552;28;20252;-51
2022/03/26 08:38:51;;;;;;;42.90;28.80;;;13.20;99.90;;;;;;5052030;28;20275;-51
2022/03/26 08:41:21;;;;;;;43.47;27.90;;;13.30;99.90;;;;;;5050224;28;20209;-52
2022/03/26 08:43:51;;;;;;;40.03;27.43;;;13.40;99.90;;;;;;5052991;28;20201;-51
2022/03/26 08:46:20;;;;;;;40.60;27.07;;;13.50;99.90;;;;;;5052912;28;20205;-52
2022/03/26 08:48:49;;;;;;;39.60;26.93;;;13.60;99.90;;;;;;5052956;28;20317;-51
2022/03/26 08:51:18;;;;;;;43.57;26.33;;;13.70;99.90;;;;;;5053464;28;20283;-52
2022/03/26 08:53:47;;;;;;;44.70;25.13;;;13.80;99.90;;;;;;5051981;28;20682;-51
2022/03/26 08:56:16;;;;;;;39.07;24.87;;;13.80;99.90;;;;;;5052915;28;20572;-52
2022/03/26 08:58:44;;;;;;;35.63;24.60;;;13.90;99.90;;;;;;5051774;28;20280;-52
2022/03/26 09:01:12;;;;;;;38.70;24.30;;;13.90;99.90;;;;;;5053227;28;20210;-51
2022/03/26 09:03:43;;;;;;;37.77;24.20;;;14.00;99.90;;;;;;5052263;28;20216;-52
2022/03/26 09:06:13;;;;;;;39.77;23.80;;;14.10;99.90;;;;;;5052435;28;20263;-51
2022/03/26 09:08:41;;;;;;;40.43;23.67;;;14.10;99.90;;;;;;5053074;28;20247;-52
2022/03/26 09:11:10;;;;;;;36.67;22.83;;;14.20;99.90;;;;;;5044640;28;20198;-51
2022/03/26 09:13:39;;;;;;;35.77;22.60;;;14.20;99.90;;;;;;5031887;28;20214;-51
2022/03/26 09:16:07;;;;;;;39.97;24.43;;;14.20;99.60;;;;;;5032454;28;20310;-51
2022/03/26 09:18:35;;;;;;;34.30;22.03;;;14.20;98.70;;;;;;5033151;28;20260;-52
2022/03/26 09:21:03;;;;;;;38.63;23.83;;;14.30;98.20;;;;;;5033266;28;20268;-51
2022/03/26 09:23:33;;;;;;;35.23;23.17;;;14.30;97.90;;;;;;5039927;28;20659;-52
2022/03/26 09:26:04;;;;;;;35.57;22.13;;;14.30;97.60;;;;;;5051872;28;20201;-51
2022/03/26 09:28:33;;;;;;;34.43;21.37;;;14.30;97.80;;;;;;5051886;28;20225;-52
2022/03/26 09:31:02;;;;;;;34.00;21.80;;;14.30;98.00;;;;;;5052393;28;20214;-52
2022/03/26 09:33:30;;;;;;;33.47;21.70;;;14.30;97.40;;;;;;5051005;28;20292;-52
2022/03/26 09:35:58;;;;;;;35.60;22.10;;;14.40;96.70;;;;;;5050494;28;20221;-52
2022/03/26 09:38:27;;;;;;;32.07;19.00;;;14.50;95.80;;;;;;5050235;28;20313;-52
2022/03/26 09:40:55;;;;;;;31.80;20.37;;;14.60;96.50;;;;;;5050500;28;20259;-52
2022/03/26 09:43:24;;;;;;;34.33;21.70;;;14.70;96.70;;;;;;5049808;28;20205;-52
2022/03/26 09:45:54;;;;;;;39.20;22.37;;;14.60;96.40;;;;;;5051022;28;20248;-52
2022/03/26 09:48:22;;;;;;;30.80;19.83;;;14.70;96.10;;;;;;5051588;28;20237;-52
2022/03/26 09:50:53;;;;;;;30.77;19.33;;;14.70;96.70;;;;;;5051214;28;20206;-52
2022/03/26 09:53:22;;;;;;;33.60;21.17;;;14.80;96.60;;;;;;5051400;28;20194;-52
2022/03/26 09:55:51;;;;;;;31.63;20.73;;;14.80;96.70;;;;;;5050436;28;20244;-51
2022/03/26 09:58:20;;;;;;;27.27;19.17;;;14.80;96.30;;;;;;5050458;28;20228;-52
2022/03/26 10:00:53;;;;;;;33.20;19.80;;;14.90;95.80;;;;;;5050634;28;20209;-51
2022/03/26 10:03:23;;;;;;;32.03;20.30;;;15.00;95.80;;;;;;5051330;28;20214;-52
2022/03/26 10:06:02;;;;;;;32.67;17.77;;;15.00;95.90;;;;;;5051150;28;20260;-52
2022/03/26 10:08:34;;;;;;;28.97;18.17;;;14.90;95.30;;;;;;5050058;28;20706;-51
2022/03/26 10:11:02;;;;;;;27.57;17.47;;;15.00;95.30;;;;;;5050473;28;20212;-52
2022/03/26 10:13:35;;;;;;;26.80;15.67;;;15.10;97.70;;;;;;5050568;28;20209;-52
2022/03/26 10:16:06;;;;;;;23.30;15.55;;;15.20;95.80;;;;;;5050987;28;20633;-52
2022/03/26 10:18:41;;;;;;;21.93;14.47;;;15.20;95.90;;;;;;5051039;28;20253;-52
2022/03/26 10:21:10;;;;;;;23.00;12.75;;;15.20;95.70;;;;;;5051666;28;20232;-52
2022/03/26 10:23:42;;;;;;;19.73;10.73;;;15.20;96.10;;;;;;5049306;28;20243;-52
2022/03/26 10:26:12;;;;;;;12.67;7.90;;;15.30;95.00;;;;;;5050879;28;20247;-52
2022/03/26 10:28:41;;;;;;;13.77;8.60;;;15.30;93.90;;;;;;5048100;28;20649;-52
2022/03/26 10:34:10;;;;;;;17.40;11.10;;;15.20;95.70;;;;;;5050752;28;20612;-52
2022/03/26 10:36:39;;;;;;;20.92;13.07;;;15.30;96.00;;;;;;5050431;28;20221;-52
2022/03/26 10:39:15;;;;;;;24.27;12.87;;;15.30;95.90;;;;;;5051398;28;20226;-51
2022/03/26 10:41:43;;;;;;;22.37;12.80;;;15.30;96.00;;;;;;5049852;28;20246;-52
2022/03/26 10:44:14;;;;;;;19.52;13.13;;;15.30;96.20;;;;;;5050852;28;20263;-51
2022/03/26 10:46:47;;;;;;;19.88;12.95;;;15.30;96.00;;;;;;5050838;28;20244;-52
2022/03/26 10:49:26;;;;;;;88.63;19.90;;;15.30;95.90;;;;;;5050790;28;20487;-52
2022/03/26 10:51:55;;;;;;;23.13;13.97;;;15.40;97.10;;;;;;5050271;28;20211;-52
2022/03/26 10:54:30;;;;;;;20.37;13.20;;;15.50;96.20;;;;;;5050851;28;20251;-52
2022/03/26 10:56:59;;;;;;;20.00;12.02;;;15.40;95.90;;;;;;5050889;28;20228;-51
2022/03/26 10:59:27;;;;;;;17.45;11.30;;;15.50;96.50;;;;;;5049463;28;20221;-52
2022/03/26 11:01:56;;;;;;;20.25;10.27;;;15.40;95.90;;;;;;5048209;28;20217;-52
2022/03/26 11:04:26;;;;;;;12.68;8.27;;;15.50;95.40;;;;;;5048676;28;20297;-52
2022/03/26 11:06:56;;;;;;;12.32;8.68;;;15.40;94.60;;;;;;5048851;28;20202;-52
2022/03/26 11:09:26;;;;;;;15.30;9.05;;;15.50;94.90;;;;;;5049548;28;20218;-52
2022/03/26 11:11:57;;;;;;;20.23;9.25;;;15.50;94.50;;;;;;5050252;28;20610;-53
2022/03/26 11:14:30;;;;;;;14.15;8.07;;;15.60;95.10;;;;;;5050400;28;20563;-52
2022/03/26 11:17:16;;;;;;;12.77;7.57;;;15.50;94.40;;;;;;5050830;28;20237;-52
2022/03/26 11:20:03;;;;;;;16.08;7.20;;;15.60;93.90;;;;;;5050479;28;20244;-51
2022/03/26 11:22:40;;;;;;;10.95;7.53;;;15.70;93.20;;;;;;5048337;28;20259;-52
2022/03/26 11:25:28;;;;;;;11.68;6.47;;;15.60;92.90;;;;;;5030552;28;20280;-52
2022/03/26 11:28:33;;;;;;;10.85;6.07;;;15.50;92.40;;;;;;5030379;28;20609;-52
2022/03/26 11:31:06;;;;;;;12.07;6.53;;;15.50;93.00;;;;;;5029905;28;20210;-52
2022/03/26 11:33:37;;;;;;;10.15;6.30;;;15.70;93.60;;;;;;5030586;28;20206;-52
2022/03/26 11:36:08;;;;;;;8.43;5.32;;;15.60;93.40;;;;;;5030869;28;20221;-52
2022/03/26 11:38:38;;;;;;;8.40;5.63;;;15.70;94.30;;;;;;5048449;28;20237;-52
2022/03/26 11:41:07;;;;;;;10.63;6.00;;;15.70;94.50;;;;;;5050425;28;20759;-52
2022/03/26 11:43:56;;;;;;;10.25;6.97;;;15.70;93.90;;;;;;5049453;28;20213;-52
2022/03/26 11:52:17;;;;;;;9.30;5.88;;;15.70;94.50;;;;;;5050078;28;20202;-52
2022/03/26 11:54:45;;;;;;;8.88;5.32;;;15.80;95.00;;;;;;5050436;28;20186;-52
2022/03/26 11:57:17;;;;;;;6.60;5.38;;;16.00;94.40;;;;;;5049786;28;20265;-52
2022/03/26 11:59:46;;;;;;;8.73;5.88;;;16.00;94.50;;;;;;5050573;28;20197;-52
2022/03/26 12:02:19;;;;;;;10.15;6.13;;;15.90;95.10;;;;;;5049457;28;20206;-52
2022/03/26 12:04:51;;;;;;;8.20;5.15;;;15.80;94.60;;;;;;5050224;28;20210;-52
2022/03/26 12:07:22;;;;;;;9.98;4.75;;;15.80;95.10;;;;;;5050108;28;20583;-51
2022/03/26 12:10:09;;;;;;;11.30;5.20;;;15.90;95.30;;;;;;5050350;28;20204;-52
2022/03/26 12:13:00;;;;;;;7.90;6.00;;;16.00;95.30;;;;;;5049676;28;20613;-52
2022/03/26 12:15:31;;;;;;;6.53;5.47;;;15.90;94.60;;;;;;5053767;28;20351;-51
2022/03/26 12:18:07;;;;;;;9.27;5.90;;;15.80;94.60;;;;;;5053516;28;20593;-51
2022/03/26 12:20:37;;;;;;;9.27;5.15;;;15.60;95.10;;;;;;5053191;28;20736;-52
2022/03/26 12:23:10;;;;;;;9.02;5.40;;;15.70;95.20;;;;;;5049427;28;20256;-52
2022/03/26 12:25:46;;;;;;;7.63;5.40;;;15.80;94.80;;;;;;5033831;28;20206;-51
2022/03/26 12:28:16;;;;;;;6.95;4.40;;;15.90;94.90;;;;;;5039585;28;20693;-52
2022/03/26 12:30:46;;;;;;;7.28;5.30;;;15.90;94.10;;;;;;5052839;28;20217;-51
2022/03/26 12:33:15;;;;;;;8.75;5.78;;;16.00;94.40;;;;;;5052711;28;20213;-51
2022/03/26 12:35:44;;;;;;;8.32;6.38;;;16.00;94.00;;;;;;5053513;28;20202;-52
2022/03/26 12:38:15;;;;;;;12.02;6.53;;;16.10;94.40;;;;;;5053679;28;20226;-52
2022/03/26 12:40:50;;;;;;;8.75;6.25;;;16.00;94.50;;;;;;5052414;28;20202;-52
2022/03/26 12:43:18;;;;;;;10.02;6.30;;;16.10;94.40;;;;;;5050866;28;20272;-52
2022/03/26 12:45:47;;;;;;;8.38;5.90;;;16.00;94.60;;;;;;5050689;28;20736;-52
2022/03/26 12:48:16;;;;;;;8.82;5.40;;;16.10;94.80;;;;;;5051570;28;20226;-52
2022/03/26 12:50:46;;;;;;;9.32;6.03;;;16.20;94.90;;;;;;5053050;28;20201;-52
2022/03/26 12:53:37;;;;;;;12.20;6.97;;;16.30;94.60;;;;;;5048453;28;20220;-52
2022/03/26 12:56:08;;;;;;;14.50;6.97;;;16.30;94.80;;;;;;5051671;28;20198;-52
2022/03/26 13:01:22;;;;;;;10.88;6.72;;;16.30;94.20;;;;;;5043648;28;20206;-52
2022/03/26 13:03:51;;;;;;;10.75;7.47;;;16.20;93.30;;;;;;5051356;28;20237;-52